createdAt,value
2023-02-11T00:00:59.569Z,19.30
2023-02-11T00:03:27.992Z,19.20
2023-02-11T00:06:03.684Z,19.80
2023-02-11T00:08:31.661Z,18.60
2023-02-11T00:10:59.468Z,19.20
2023-02-11T00:13:27.389Z,19.50
2023-02-11T00:15:55.556Z,19.90
2023-02-11T00:18:23.457Z,19.10
2023-02-11T00:20:51.284Z,21.00
2023-02-11T00:23:19.169Z,21.90
2023-02-11T00:25:47.014Z,20.40
2023-02-11T00:28:14.856Z,20.00
2023-02-11T00:30:42.765Z,19.90
2023-02-11T00:33:10.902Z,19.10
2023-02-11T00:35:38.793Z,18.90
2023-02-11T00:38:06.742Z,19.60
2023-02-11T00:40:34.751Z,19.60
2023-02-11T00:43:02.574Z,20.50
2023-02-11T00:45:30.865Z,19.60
2023-02-11T00:47:58.756Z,20.70
2023-02-11T00:50:26.622Z,20.20
2023-02-11T00:52:54.382Z,20.00
2023-02-11T00:55:22.122Z,19.90
2023-02-11T00:57:50.146Z,20.60
2023-02-11T01:00:18.008Z,21.10
2023-02-11T01:02:45.804Z,19.70
2023-02-11T01:05:13.863Z,19.80
2023-02-11T01:07:41.616Z,20.40
2023-02-11T01:10:09.561Z,20.60
2023-02-11T01:12:37.402Z,20.60
2023-02-11T01:15:06.121Z,20.50
2023-02-11T01:17:34.524Z,20.80
2023-02-11T01:20:05.030Z,19.70
2023-02-11T01:22:34.415Z,20.90
2023-02-11T01:25:02.387Z,20.00
2023-02-11T01:27:30.209Z,18.80
2023-02-11T01:29:58.094Z,20.30
2023-02-11T01:32:26.054Z,20.50
2023-02-11T01:34:54.040Z,20.00
2023-02-11T01:37:21.823Z,20.30
2023-02-11T01:39:49.585Z,20.80
2023-02-11T01:42:18.625Z,20.90
2023-02-11T01:44:50.015Z,20.10
2023-02-11T01:47:18.396Z,20.90
2023-02-11T01:49:47.894Z,20.90
2023-02-11T01:52:25.001Z,19.70
2023-02-11T01:55:13.552Z,19.50
2023-02-11T01:57:44.924Z,19.90
2023-02-11T02:00:15.599Z,20.90
2023-02-11T02:02:46.476Z,21.20
2023-02-11T02:05:35.481Z,19.90
2023-02-11T02:08:03.438Z,18.80
2023-02-11T02:10:31.610Z,21.00
2023-02-11T02:12:59.341Z,19.60
2023-02-11T02:15:33.954Z,20.70
2023-02-11T02:18:22.130Z,19.80
2023-02-11T02:20:53.142Z,20.40
2023-02-11T02:23:27.239Z,20.50
2023-02-11T02:26:07.213Z,20.50
2023-02-11T02:29:13.608Z,20.50
2023-02-11T02:31:53.535Z,20.50
2023-02-11T02:34:31.328Z,21.10
2023-02-11T02:37:08.578Z,20.60
2023-02-11T02:39:37.518Z,20.30
2023-02-11T02:42:06.274Z,20.60
2023-02-11T02:44:34.226Z,20.40
2023-02-11T02:47:02.115Z,20.10
2023-02-11T02:49:30.117Z,20.00
2023-02-11T02:52:14.035Z,19.40
2023-02-11T02:55:06.417Z,20.90
2023-02-11T02:57:52.969Z,20.10
2023-02-11T03:00:24.010Z,20.10
2023-02-11T03:03:01.001Z,21.30
2023-02-11T03:05:41.268Z,20.20
2023-02-11T03:08:21.173Z,21.50
2023-02-11T03:10:51.049Z,20.30
2023-02-11T03:13:20.240Z,20.30
2023-02-11T03:15:50.425Z,20.40
2023-02-11T03:18:21.377Z,20.20
2023-02-11T03:20:50.818Z,22.30
2023-02-11T03:23:18.651Z,20.60
2023-02-11T03:25:50.943Z,24.20
2023-02-11T03:28:22.055Z,20.70
2023-02-11T03:30:55.279Z,19.50
2023-02-11T03:33:32.264Z,21.80
2023-02-11T03:36:05.351Z,21.20
2023-02-11T03:38:44.693Z,21.00
2023-02-11T03:41:14.868Z,20.70
2023-02-11T03:43:46.537Z,22.60
2023-02-11T03:46:16.532Z,22.00
2023-02-11T03:48:46.017Z,21.90
2023-02-11T03:51:14.839Z,22.20
2023-02-11T03:53:43.797Z,20.90
2023-02-11T03:56:14.322Z,22.50
2023-02-11T03:58:44.173Z,23.30
2023-02-11T04:01:12.274Z,22.40
2023-02-11T04:03:40.309Z,21.60
2023-02-11T04:06:08.693Z,22.60
2023-02-11T04:08:36.630Z,21.60
2023-02-11T04:11:04.519Z,21.90
2023-02-11T04:13:32.361Z,21.80
2023-02-11T04:16:00.290Z,22.50
2023-02-11T04:18:28.220Z,22.90
2023-02-11T04:20:56.026Z,22.10
2023-02-11T04:23:23.793Z,22.60
2023-02-11T04:25:51.871Z,23.60
2023-02-11T04:28:20.143Z,23.50
2023-02-11T04:30:49.472Z,22.90
2023-02-11T04:33:17.335Z,24.90
2023-02-11T04:35:45.283Z,23.40
2023-02-11T04:38:13.383Z,23.00
2023-02-11T04:40:41.281Z,23.30
2023-02-11T04:43:09.196Z,23.70
2023-02-11T04:45:37.008Z,24.00
2023-02-11T04:48:05.026Z,24.30
2023-02-11T04:50:33.055Z,24.30
2023-02-11T04:53:00.914Z,25.30
2023-02-11T04:55:28.705Z,25.00
2023-02-11T04:57:56.537Z,24.30
2023-02-11T05:00:24.326Z,23.70
2023-02-11T05:02:52.096Z,23.90
2023-02-11T05:05:19.909Z,23.80
2023-02-11T05:07:48.535Z,24.50
2023-02-11T05:10:16.368Z,26.00
2023-02-11T05:12:44.116Z,25.70
2023-02-11T05:15:11.913Z,23.80
2023-02-11T05:17:39.722Z,24.40
2023-02-11T05:20:08.945Z,24.80
2023-02-11T05:22:36.687Z,23.60
2023-02-11T05:25:04.682Z,25.90
2023-02-11T05:27:32.493Z,25.90
2023-02-11T05:30:00.267Z,24.80
2023-02-11T05:32:28.064Z,25.40
2023-02-11T05:34:55.806Z,25.00
2023-02-11T05:37:23.958Z,26.30
2023-02-11T05:39:52.087Z,25.60
2023-02-11T05:42:20.042Z,24.90
2023-02-11T05:44:50.305Z,27.20
2023-02-11T05:47:18.551Z,29.10
2023-02-11T05:49:46.512Z,25.20
2023-02-11T05:52:16.444Z,27.40
2023-02-11T05:54:44.428Z,26.20
2023-02-11T05:57:12.205Z,27.30
2023-02-11T05:59:40.039Z,27.30
2023-02-11T06:02:08.641Z,27.10
2023-02-11T06:04:37.238Z,27.20
2023-02-11T06:07:05.084Z,27.70
2023-02-11T06:09:32.986Z,26.70
2023-02-11T06:12:01.043Z,28.00
2023-02-11T06:14:28.881Z,28.00
2023-02-11T06:16:56.838Z,27.00
2023-02-11T06:19:24.731Z,28.60
2023-02-11T06:21:52.562Z,27.40
2023-02-11T06:24:38.277Z,28.10
2023-02-11T06:27:08.174Z,27.30
2023-02-11T06:29:36.314Z,26.90
2023-02-11T06:32:04.549Z,28.80
2023-02-11T06:34:32.572Z,27.50
2023-02-11T06:37:00.501Z,28.20
2023-02-11T06:39:28.366Z,29.00
2023-02-11T06:41:56.552Z,27.90
2023-02-11T06:44:24.346Z,28.50
2023-02-11T06:46:52.277Z,28.10
2023-02-11T06:49:20.030Z,26.90
2023-02-11T06:51:47.774Z,28.40
2023-02-11T06:54:15.605Z,29.30
2023-02-11T06:56:43.522Z,28.80
2023-02-11T06:59:15.925Z,28.70
2023-02-11T07:01:44.310Z,29.60
2023-02-11T07:04:12.764Z,29.50
2023-02-11T07:06:41.172Z,30.80
2023-02-11T07:09:09.379Z,32.10
2023-02-11T07:11:37.133Z,28.40
2023-02-11T07:14:06.558Z,29.80
2023-02-11T07:16:35.021Z,28.70
2023-02-11T07:19:03.032Z,30.20
2023-02-11T07:21:30.852Z,29.80
2023-02-11T07:23:58.699Z,30.50
2023-02-11T07:26:27.160Z,30.30
2023-02-11T07:28:54.969Z,28.00
2023-02-11T07:31:24.131Z,31.80
2023-02-11T07:33:53.283Z,30.50
2023-02-11T07:36:21.764Z,30.10
2023-02-11T07:38:50.391Z,29.20
2023-02-11T07:41:19.875Z,28.00
2023-02-11T07:43:48.087Z,29.70
2023-02-11T07:46:18.360Z,27.90
2023-02-11T07:48:46.556Z,29.60
2023-02-11T07:51:14.404Z,30.00
2023-02-11T07:53:42.189Z,37.20
2023-02-11T07:56:11.204Z,28.90
2023-02-11T07:58:39.274Z,29.90
2023-02-11T08:01:09.071Z,28.70
2023-02-11T08:03:37.268Z,29.00
2023-02-11T08:06:06.322Z,30.70
2023-02-11T08:08:34.578Z,28.50
2023-02-11T08:11:18.356Z,28.50
2023-02-11T08:13:46.205Z,30.30
2023-02-11T08:16:21.628Z,30.30
2023-02-11T08:18:50.064Z,31.20
2023-02-11T08:21:18.329Z,30.30
2023-02-11T08:23:46.454Z,30.50
2023-02-11T08:26:15.919Z,30.40
2023-02-11T08:28:44.496Z,29.70
2023-02-11T08:31:13.914Z,31.10
2023-02-11T08:33:41.884Z,31.20
2023-02-11T08:36:10.297Z,30.70
2023-02-11T08:38:38.126Z,33.40
2023-02-11T08:41:06.302Z,30.20
2023-02-11T08:43:34.722Z,29.80
2023-02-11T08:46:03.098Z,30.80
2023-02-11T08:48:31.495Z,27.20
2023-02-11T08:50:59.397Z,31.20
2023-02-11T08:53:27.356Z,29.90
2023-02-11T08:55:55.581Z,29.80
2023-02-11T08:58:23.505Z,31.00
2023-02-11T09:00:51.713Z,28.90
2023-02-11T09:03:19.681Z,29.00
2023-02-11T09:05:50.240Z,29.70
2023-02-11T09:08:18.224Z,28.40
2023-02-11T09:10:46.124Z,28.70
2023-02-11T09:13:14.157Z,30.10
2023-02-11T09:15:44.993Z,29.10
2023-02-11T09:18:12.914Z,29.60
2023-02-11T09:20:40.745Z,29.80
2023-02-11T09:23:09.888Z,28.20
2023-02-11T09:25:39.405Z,28.60
2023-02-11T09:28:08.112Z,29.00
2023-02-11T09:30:36.653Z,29.80
2023-02-11T09:33:04.573Z,28.00
2023-02-11T09:35:32.901Z,31.70
2023-02-11T09:38:00.814Z,33.60
2023-02-11T09:40:28.674Z,30.20
2023-02-11T09:43:01.155Z,29.90
2023-02-11T09:45:31.037Z,30.30
2023-02-11T09:48:00.582Z,29.50
2023-02-11T09:50:36.495Z,30.00
2023-02-11T09:53:07.338Z,29.50
2023-02-11T09:55:38.073Z,29.60
2023-02-11T09:58:11.467Z,29.80
2023-02-11T10:00:59.564Z,29.40
2023-02-11T10:03:33.316Z,30.80
2023-02-11T10:06:21.397Z,29.10
2023-02-11T10:08:52.293Z,28.10
2023-02-11T10:11:35.572Z,30.40
2023-02-11T10:14:24.946Z,30.10
2023-02-11T10:16:52.941Z,30.40
2023-02-11T10:19:20.721Z,28.10
2023-02-11T10:22:08.657Z,28.20
2023-02-11T10:24:37.365Z,28.40
2023-02-11T10:27:20.182Z,28.00
2023-02-11T10:29:59.212Z,28.30
2023-02-11T10:32:31.005Z,28.20
2023-02-11T10:35:02.342Z,29.10
2023-02-11T10:37:30.799Z,29.60
2023-02-11T10:39:58.649Z,27.20
2023-02-11T10:42:27.252Z,28.40
2023-02-11T10:45:00.643Z,28.60
2023-02-11T10:47:30.288Z,29.40
2023-02-11T10:50:03.424Z,29.80
2023-02-11T10:52:31.561Z,28.30
2023-02-11T10:54:59.339Z,29.70
2023-02-11T10:57:32.965Z,28.00
2023-02-11T11:00:04.559Z,29.20
2023-02-11T11:02:36.157Z,27.20
2023-02-11T11:05:16.325Z,29.30
2023-02-11T11:08:04.064Z,27.70
2023-02-11T11:10:45.908Z,26.80
2023-02-11T11:13:22.977Z,26.80
2023-02-11T11:16:26.556Z,28.90
2023-02-11T11:19:14.320Z,27.50
2023-02-11T11:21:54.760Z,25.50
2023-02-11T11:24:42.792Z,25.10
2023-02-11T11:27:17.031Z,26.90
2023-02-11T11:29:47.258Z,24.80
2023-02-11T11:32:26.182Z,25.60
2023-02-11T11:35:00.526Z,25.80
2023-02-11T11:37:29.573Z,26.10
2023-02-11T11:40:17.768Z,26.40
2023-02-11T11:42:45.788Z,25.10
2023-02-11T11:45:19.683Z,25.40
2023-02-11T11:47:49.000Z,27.00
2023-02-11T11:50:22.919Z,24.80
2023-02-11T11:53:05.725Z,23.60
2023-02-11T11:55:36.573Z,25.00
2023-02-11T11:58:04.939Z,24.30
2023-02-11T12:00:32.903Z,23.20
2023-02-11T12:03:21.073Z,22.80
2023-02-11T12:05:59.194Z,24.00
2023-02-11T12:08:45.962Z,22.00
2023-02-11T12:11:13.748Z,22.80
2023-02-11T12:13:41.656Z,22.70
2023-02-11T12:16:33.733Z,22.60
2023-02-11T12:19:13.730Z,22.20
2023-02-11T12:21:50.777Z,21.30
2023-02-11T12:24:51.082Z,21.50
2023-02-11T12:27:19.323Z,22.70
2023-02-11T12:30:07.199Z,21.60
2023-02-11T12:32:53.936Z,21.30
2023-02-11T12:35:25.819Z,22.20
2023-02-11T12:38:18.878Z,20.80
2023-02-11T12:40:52.790Z,21.20
2023-02-11T12:43:23.929Z,21.90
2023-02-11T12:46:07.267Z,23.10
2023-02-11T12:48:35.906Z,21.50
2023-02-11T12:51:22.368Z,21.90
2023-02-11T12:53:55.698Z,21.30
2023-02-11T12:56:23.672Z,21.90
2023-02-11T12:58:52.864Z,21.80
2023-02-11T13:01:26.835Z,21.40
2023-02-11T13:03:57.058Z,20.90
2023-02-11T13:06:34.172Z,21.20
2023-02-11T13:09:04.712Z,21.50
2023-02-11T13:11:35.104Z,21.10
2023-02-11T13:14:19.404Z,20.10
2023-02-11T13:16:48.965Z,21.40
2023-02-11T13:19:38.197Z,22.30
2023-02-11T13:22:10.797Z,22.20
2023-02-11T13:24:41.406Z,21.40
2023-02-11T13:27:12.278Z,22.10
2023-02-11T13:29:46.373Z,22.20
2023-02-11T13:32:15.045Z,21.50
2023-02-11T13:34:42.827Z,21.00
2023-02-11T13:37:22.885Z,19.40
2023-02-11T13:40:16.957Z,21.90
2023-02-11T13:42:50.474Z,21.90
2023-02-11T13:45:30.540Z,20.10
2023-02-11T13:47:59.792Z,19.60
2023-02-11T13:50:28.668Z,19.90
2023-02-11T13:52:58.480Z,19.40
2023-02-11T13:55:28.007Z,18.90
2023-02-11T13:58:07.666Z,18.20
2023-02-11T14:00:35.521Z,17.70
2023-02-11T14:03:31.682Z,17.90
2023-02-11T14:06:27.167Z,17.60
2023-02-11T14:09:06.971Z,17.20
2023-02-11T14:11:40.819Z,18.40
2023-02-11T14:14:28.363Z,18.40
2023-02-11T14:17:02.044Z,18.30
2023-02-11T14:19:38.374Z,19.10
2023-02-11T14:22:13.608Z,17.90
2023-02-11T14:24:47.862Z,18.30
2023-02-11T14:27:21.582Z,19.60
2023-02-11T14:29:53.876Z,19.80
2023-02-11T14:32:24.460Z,15.80
2023-02-11T14:34:55.267Z,16.00
2023-02-11T14:37:50.346Z,16.80
2023-02-11T14:40:33.652Z,16.70
2023-02-11T14:43:13.327Z,15.40
2023-02-11T14:45:49.992Z,16.20
2023-02-11T14:48:19.017Z,16.20
2023-02-11T14:50:49.539Z,16.60
2023-02-11T14:53:19.640Z,21.30
2023-02-11T14:55:48.652Z,16.90
2023-02-11T14:58:17.971Z,17.00
2023-02-11T15:00:51.771Z,16.80
2023-02-11T15:03:31.021Z,16.80
2023-02-11T15:06:06.954Z,16.70
2023-02-11T15:08:36.794Z,16.20
2023-02-11T15:11:08.422Z,15.50
2023-02-11T15:13:36.362Z,15.50
2023-02-11T15:16:08.069Z,16.40
2023-02-11T15:18:44.817Z,16.00
2023-02-11T15:21:12.694Z,16.40
2023-02-11T15:23:42.809Z,17.30
2023-02-11T15:26:23.960Z,18.80
2023-02-11T15:28:56.153Z,17.10
2023-02-11T15:31:25.542Z,17.50
2023-02-11T15:33:54.315Z,16.20
2023-02-11T15:36:28.670Z,15.60
2023-02-11T15:39:15.505Z,15.70
2023-02-11T15:41:44.572Z,15.50
2023-02-11T15:44:29.283Z,14.40
2023-02-11T15:46:57.544Z,17.40
2023-02-11T15:49:26.412Z,15.80
2023-02-11T15:51:55.287Z,14.50
2023-02-11T15:54:26.760Z,14.30
2023-02-11T15:56:59.315Z,14.80
2023-02-11T15:59:31.475Z,14.70
2023-02-11T16:02:06.420Z,15.10
2023-02-11T16:04:34.650Z,14.90
2023-02-11T16:07:03.211Z,14.40
2023-02-11T16:09:35.362Z,14.40
2023-02-11T16:12:07.620Z,14.40
2023-02-11T16:14:42.401Z,13.90
2023-02-11T16:17:23.537Z,13.00
2023-02-11T16:19:53.128Z,13.10
2023-02-11T16:22:28.580Z,12.70
2023-02-11T16:24:59.870Z,14.00
2023-02-11T16:27:38.094Z,12.40
2023-02-11T16:30:07.243Z,13.80
2023-02-11T16:32:35.545Z,13.50
2023-02-11T16:35:05.137Z,13.30
2023-02-11T16:37:34.840Z,13.60
2023-02-11T16:40:02.940Z,13.30
2023-02-11T16:42:30.746Z,12.60
2023-02-11T16:44:59.847Z,13.10
2023-02-11T16:47:28.205Z,12.80
2023-02-11T16:49:56.323Z,12.90
2023-02-11T16:52:25.743Z,12.30
2023-02-11T16:54:53.793Z,11.60
2023-02-11T16:57:26.961Z,13.00
2023-02-11T16:59:56.163Z,12.40
2023-02-11T17:02:31.769Z,13.20
2023-02-11T17:05:02.079Z,14.00
2023-02-11T17:07:29.984Z,13.10
2023-02-11T17:09:58.236Z,16.70
2023-02-11T17:12:26.056Z,14.90
2023-02-11T17:14:54.112Z,12.60
2023-02-11T17:17:25.025Z,12.80
2023-02-11T17:19:52.840Z,13.00
2023-02-11T17:22:20.629Z,13.00
2023-02-11T17:24:48.558Z,10.10
2023-02-11T17:27:16.433Z,12.30
2023-02-11T17:29:44.297Z,11.50
2023-02-11T17:32:12.185Z,12.50
2023-02-11T17:34:40.006Z,10.50
2023-02-11T17:37:11.107Z,10.60
2023-02-11T17:39:39.520Z,10.20
2023-02-11T17:42:08.729Z,11.30
2023-02-11T17:44:37.507Z,11.20
2023-02-11T17:47:05.349Z,10.10
2023-02-11T17:49:33.224Z,10.70
2023-02-11T17:52:01.059Z,9.50
2023-02-11T17:54:29.044Z,10.90
2023-02-11T17:56:58.462Z,11.10
2023-02-11T17:59:26.586Z,10.90
2023-02-11T18:01:54.418Z,11.80
2023-02-11T18:04:22.277Z,10.10
2023-02-11T18:06:50.487Z,11.50
2023-02-11T18:09:18.690Z,11.10
2023-02-11T18:11:46.869Z,10.50
2023-02-11T18:14:14.776Z,10.60
2023-02-11T18:16:44.928Z,8.60
2023-02-11T18:19:13.276Z,9.30
2023-02-11T18:21:41.614Z,11.10
2023-02-11T18:24:09.768Z,9.70
2023-02-11T18:26:37.743Z,9.90
2023-02-11T18:29:07.056Z,9.40
2023-02-11T18:31:38.589Z,9.80
2023-02-11T18:34:07.652Z,8.90
2023-02-11T18:36:35.972Z,9.30
2023-02-11T18:39:05.069Z,11.70
2023-02-11T18:41:33.396Z,11.10
2023-02-11T18:44:03.192Z,9.40
2023-02-11T18:46:31.527Z,9.30
2023-02-11T18:48:59.388Z,10.30
2023-02-11T18:51:27.296Z,9.50
2023-02-11T18:53:55.048Z,7.90
2023-02-11T18:56:23.787Z,9.40
2023-02-11T18:58:52.190Z,9.40
2023-02-11T19:01:22.874Z,8.60
2023-02-11T19:03:51.492Z,9.40
2023-02-11T19:06:27.363Z,8.50
2023-02-11T19:08:59.695Z,8.80
2023-02-11T19:11:47.055Z,8.90
2023-02-11T19:14:16.697Z,8.30
2023-02-11T19:16:45.125Z,8.60
2023-02-11T19:19:13.786Z,8.30
2023-02-11T19:21:42.637Z,8.50
2023-02-11T19:24:11.287Z,9.00
2023-02-11T19:26:39.258Z,9.90
2023-02-11T19:29:07.218Z,9.10
2023-02-11T19:31:35.261Z,8.50
2023-02-11T19:34:03.350Z,7.40
2023-02-11T19:36:31.277Z,7.90
2023-02-11T19:39:00.961Z,9.40
2023-02-11T19:41:29.542Z,8.20
2023-02-11T19:43:57.818Z,8.50
2023-02-11T19:46:26.722Z,7.40
2023-02-11T19:48:55.004Z,7.90
2023-02-11T19:51:26.422Z,7.20
2023-02-11T19:53:54.293Z,7.60
2023-02-11T19:56:23.194Z,7.80
2023-02-11T19:58:51.276Z,7.50
2023-02-11T20:01:20.184Z,6.90
2023-02-11T20:03:50.069Z,6.90
2023-02-11T20:06:23.531Z,7.30
2023-02-11T20:08:59.098Z,8.10
2023-02-11T20:11:28.391Z,8.10
2023-02-11T20:13:59.391Z,7.10
2023-02-11T20:16:44.628Z,6.70
2023-02-11T20:19:18.087Z,7.00
2023-02-11T20:21:49.988Z,7.90
2023-02-11T20:24:18.505Z,6.70
2023-02-11T20:26:48.421Z,7.50
2023-02-11T20:29:17.367Z,6.60
2023-02-11T20:31:45.887Z,7.50
2023-02-11T20:34:14.166Z,7.30
2023-02-11T20:36:42.127Z,7.90
2023-02-11T20:39:11.070Z,7.40
2023-02-11T20:41:40.895Z,6.20
2023-02-11T20:44:10.640Z,6.40
2023-02-11T20:46:40.360Z,7.30
2023-02-11T20:49:11.360Z,7.60
2023-02-11T20:51:39.354Z,7.80
2023-02-11T20:54:07.890Z,7.20
2023-02-11T20:56:37.217Z,7.40
2023-02-11T20:59:05.997Z,7.20
2023-02-11T21:01:34.030Z,8.40
2023-02-11T21:04:07.041Z,7.40
2023-02-11T21:06:36.219Z,7.70
2023-02-11T21:09:06.617Z,7.50
2023-02-11T21:11:34.460Z,7.20
2023-02-11T21:14:02.542Z,8.30
2023-02-11T21:16:32.678Z,9.10
2023-02-11T21:19:01.279Z,7.10
2023-02-11T21:21:29.175Z,7.30
2023-02-11T21:23:58.494Z,7.10
2023-02-11T21:26:26.519Z,8.50
2023-02-11T21:28:55.253Z,7.30
2023-02-11T21:31:24.637Z,7.70
2023-02-11T21:33:54.585Z,7.00
2023-02-11T21:36:23.210Z,7.00
2023-02-11T21:38:51.207Z,8.40
2023-02-11T21:41:21.894Z,7.90
2023-02-11T21:43:50.130Z,7.80
2023-02-11T21:46:18.368Z,7.00
2023-02-11T21:48:46.610Z,7.20
2023-02-11T21:51:16.179Z,7.00
2023-02-11T21:53:44.120Z,8.10
2023-02-11T21:56:16.455Z,8.30
2023-02-11T21:58:44.777Z,7.90
2023-02-11T22:01:15.849Z,7.50
2023-02-11T22:03:43.834Z,8.10
2023-02-11T22:06:14.770Z,8.10
2023-02-11T22:08:42.754Z,8.20
2023-02-11T22:11:12.303Z,7.80
2023-02-11T22:13:40.836Z,6.80
2023-02-11T22:16:10.384Z,7.40
2023-02-11T22:18:38.334Z,7.80
2023-02-11T22:21:07.477Z,7.70
2023-02-11T22:23:35.566Z,7.70
2023-02-11T22:26:07.957Z,7.80
2023-02-11T22:28:37.227Z,7.30
2023-02-11T22:31:05.456Z,8.40
2023-02-11T22:33:33.360Z,7.40
2023-02-11T22:36:02.383Z,7.90
2023-02-11T22:38:31.242Z,8.10
2023-02-11T22:40:59.431Z,8.00
2023-02-11T22:43:27.871Z,8.30
2023-02-11T22:45:56.809Z,8.40
2023-02-11T22:48:24.910Z,8.00
2023-02-11T22:50:52.716Z,7.90
2023-02-11T22:53:20.776Z,7.80
2023-02-11T22:55:48.546Z,8.50
2023-02-11T22:58:16.440Z,8.20
2023-02-11T23:00:44.372Z,7.30
2023-02-11T23:03:12.448Z,7.10
2023-02-11T23:05:40.982Z,7.80
2023-02-11T23:08:10.195Z,7.00
2023-02-11T23:10:38.912Z,7.40
2023-02-11T23:13:07.865Z,7.90
2023-02-11T23:15:39.058Z,8.00
2023-02-11T23:18:07.301Z,7.90
2023-02-11T23:20:36.046Z,8.90
2023-02-11T23:23:04.129Z,9.10
2023-02-11T23:25:32.668Z,9.00
2023-02-11T23:28:00.793Z,8.30
2023-02-11T23:30:28.774Z,7.90
2023-02-11T23:32:56.634Z,7.70
2023-02-11T23:35:24.910Z,7.60
2023-02-11T23:37:53.547Z,8.50
2023-02-11T23:40:21.537Z,7.60
2023-02-11T23:42:49.377Z,7.70
2023-02-11T23:45:17.342Z,7.70
2023-02-11T23:47:45.728Z,6.90
2023-02-11T23:50:13.727Z,8.80
2023-02-11T23:52:41.632Z,8.70
2023-02-11T23:55:09.691Z,8.00
2023-02-11T23:57:37.547Z,8.20
